• Join FlightAware (Why Join?)
  • Login
  • US Flag 
03:21AM EDT


 

Airport Tracker/Info


-or-


 

Live Flight TrackerFlight Track Log ✈ SWA1524 ✈ 21-May-2013 ✈ KDCA - KSTL

Flight Track Log - Related Links

Times and Time Zones

All times are in EDT time to prevent confusion due to time zone crossing. See the SWA1524 flight status page for this flight to view local times or setup timezone preferences in your user account.

Time Position Orientation Groundspeed Altitude Reporting Facility
EDT Latitude Longitude Course Direction KTS MPH feet Rate Location/Type
12:56PM 38.8000 -77.0333 270° West 191 220 2,300  Level Potomac TRACON
12:57PM 38.7333 -77.0500 191° South 261 300 4,200 1,380 Climbing Potomac TRACON
12:58PM 38.7167 -77.1333 256° West 281 323 5,100 1,980 Climbing Potomac TRACON
12:59PM 38.7000 -77.2333 258° West 280 322 8,200 2,820 Climbing Potomac TRACON
01:00PM 38.7203 -77.2681 307° West 280 322 9,100 2,220 Climbing Washington Center
01:01PM 38.7925 -77.3308 326° Northwest 325 374 11,400 2,580 Climbing Washington Center
01:02PM 38.9500 -78.0975 270° West  Level FlightAware Approximate
01:02PM 38.8283 -77.4303 295° West 346 398 14,400  Level Washington Center
01:03PM 38.8553 -77.5775 283° West 351 404 17,800 3,060 Climbing Washington Center
01:04PM 38.8742 -77.6981 281° West 381 438 20,500 2,940 Climbing Washington Center
01:05PM 38.8986 -77.8456 282° West 397 457 23,600 2,520 Climbing Washington Center
01:06PM 38.9228 -77.9903 282° West 397 457 25,700 1,920 Climbing Washington Center
01:07PM 38.9469 -78.1353 282° West 407 468 27,500 1,680 Climbing Washington Center
01:08PM 38.9644 -78.2881 278° West 421 484 29,100 1,380 Climbing Washington Center
01:09PM 38.9678 -78.4136 272° West 435 501 30,400 1,860 Climbing Washington Center
01:10PM 38.9736 -78.6033 272° West 440 506 33,000 1,860 Climbing Washington Center
01:11PM 38.9781 -78.7586 272° West 440 506 34,100 1,320 Climbing Washington Center
01:12PM 38.9819 -78.9189 272° West 440 506 35,600 1,380 Climbing Washington Center
01:13PM 38.9858 -79.0794 272° West 445 512 37,000 1,140 Climbing Washington Center
01:14PM 38.9897 -79.2344 272° West 445 512 38,000 480 Climbing Washington Center
01:15PM 38.9931 -79.3894 272° West 445 512 38,000  Level Washington Center
01:16PM 38.9986 -79.5447 273° West 445 512 38,000  Level Washington Center
01:17PM 39.0014 -79.7053 271° West 448 516 38,000  Level Washington Center
01:19PM 39.0033 -80.0364 271° West 435 501 38,000  Level Indianapolis Center
01:20PM 39.0108 -80.1967 273° West 436 502 38,000  Level Indianapolis Center
01:21PM 39.0244 -80.3511 277° West 435 501 38,000  Level Indianapolis Center
01:22PM 39.0383 -80.5050 277° West 435 501 38,000  Level Indianapolis Center
01:23PM 39.0514 -80.6906 275° West 436 502 38,000  Level Indianapolis Center
01:24PM 39.0642 -80.8450 276° West 437 503 38,000  Level Indianapolis Center
01:25PM 39.0753 -80.9997 275° West 436 502 38,000  Level Indianapolis Center
01:26PM 39.0883 -81.1547 276° West 437 503 38,000  Level Indianapolis Center
01:27PM 39.0994 -81.3108 275° West 440 506 38,000  Level Indianapolis Center
01:28PM 39.1103 -81.4672 275° West 442 509 38,000  Level Indianapolis Center
01:29PM 39.1244 -81.6547 276° West 442 509 38,000  Level Indianapolis Center
01:30PM 39.1342 -81.8119 275° West 444 511 38,000  Level Indianapolis Center
01:31PM 39.1447 -81.9675 275° West 439 505 38,000  Level Indianapolis Center
01:32PM 39.1553 -82.1222 275° West 437 503 38,000  Level Indianapolis Center
01:33PM 39.1647 -82.2786 275° West 438 504 38,000  Level Indianapolis Center
01:34PM 39.1747 -82.4333 275° West 437 503 38,000  Level Indianapolis Center
01:35PM 39.1847 -82.5994 274° West 432 497 38,000  Level Indianapolis Center
01:36PM 39.1939 -82.7542 274° West 430 495 38,000  Level Indianapolis Center
01:37PM 39.2039 -82.9086 275° West 429 494 38,000  Level Indianapolis Center
01:39PM 39.2128 -83.0631 274° West 428 493 38,000  Level Indianapolis Center
01:40PM 39.2222 -83.2422 274° West 425 489 38,000  Level Indianapolis Center
01:41PM 39.2308 -83.3942 274° West 420 483 38,000  Level Indianapolis Center
01:42PM 39.2378 -83.5433 273° West 413 475 38,000  Level Indianapolis Center
01:43PM 39.2467 -83.6922 274° West 411 473 38,000  Level Indianapolis Center
01:44PM 39.2536 -83.8397 274° West 408 470 38,000  Level Indianapolis Center
01:45PM 39.2608 -83.9889 274° West 410 472 38,000  Level Indianapolis Center
01:46PM 39.2678 -84.1358 274° West 407 468 38,000  Level Indianapolis Center
01:47PM 39.2761 -84.2842 274° West 410 472 38,000  Level Indianapolis Center
01:48PM 39.2831 -84.4300 274° West 406 467 38,000  Level Indianapolis Center
01:49PM 39.2894 -84.5758 273° West 405 466 38,000  Level Indianapolis Center
01:50PM 39.2958 -84.7217 273° West 405 466 38,000  Level Indianapolis Center
01:51PM 39.3028 -84.8933 273° West 406 467 38,000  Level Indianapolis Center
01:52PM 39.3086 -85.0217 273° West 410 472 38,000  Level Indianapolis Center
01:53PM 39.3147 -85.1675 273° West 408 470 38,000  Level Indianapolis Center
01:54PM 39.3206 -85.3450 272° West 411 473 38,000  Level Indianapolis Center
01:55PM 39.3261 -85.4936 273° West 413 475 38,000  Level Indianapolis Center
01:56PM 39.3317 -85.6419 273° West 414 476 38,000  Level Indianapolis Center
01:57PM 39.3364 -85.7897 272° West 412 474 38,000  Level Indianapolis Center
01:58PM 39.3411 -85.9369 272° West 411 473 38,000  Level Indianapolis Center
01:59PM 39.3456 -86.0853 272° West 410 472 38,000  Level Indianapolis Center
02:00PM 39.3500 -86.2342 272° West 412 474 38,000 -360 Level Indianapolis Center
02:01PM 39.3825 -86.3797 286° West 424 488 37,300 -900 Descending Indianapolis Center
02:02PM 39.4286 -86.5236 293° West 430 495 36,200 -1,920 Descending Indianapolis Center
02:03PM 39.4875 -86.6953 294° West 431 496 33,400 -2,040 Descending Indianapolis Center
02:04PM 39.5203 -86.8461 286° West 434 499 32,000 -720 Descending Indianapolis Center
02:05PM 39.5086 -86.9922 264° West 411 473 32,000  Level Indianapolis Center
02:06PM 39.4939 -87.1331 262° West 399 459 32,000 -480 Level Indianapolis Center
02:07PM 39.4783 -87.2664 261° West 380 437 31,100 -1,020 Descending Indianapolis Center
02:08PM 39.4639 -87.3992 262° West 375 432 30,000 -540 Descending Indianapolis Center
02:09PM 39.4492 -87.5292 262° West 368 423 30,000  Level Indianapolis Center
02:10PM 39.4308 -87.6972 262° West 389 448 30,000  Level Indianapolis Center
02:11PM 39.4144 -87.8358 261° West 393 452 30,000  Level Indianapolis Center
02:12PM 39.3992 -87.9750 262° West 392 451 30,000  Level Indianapolis Center
02:15PM 39.3425 -88.2431 255° West 385 443 30,000 -360 Level Indianapolis Center
02:16PM 39.3067 -88.3742 251° West 387 445 28,900 -1,140 Descending Indianapolis Center
02:17PM 39.2631 -88.5350 251° West 388 447 27,700 -1,020 Descending Kansas City Center
02:18PM 39.2333 -88.6450 251° West 382 440 26,800 -1,020 Descending Kansas City Center
02:19PM 39.1931 -88.7944 251° West 372 428 25,600 -1,080 Descending Kansas City Center
02:20PM 39.1586 -88.9183 250° West 369 425 24,600 -1,560 Descending Kansas City Center
02:21PM 39.1258 -89.0458 252° West 359 413 22,500 -2,100 Descending Kansas City Center
02:22PM 39.0944 -89.1617 251° West 345 397 20,300 -2,220 Descending Kansas City Center
02:23PM 39.0661 -89.2847 254° West 333 383 18,000 -2,100 Descending Kansas City Center
02:24PM 39.0403 -89.3969 254° West 329 379 16,000 -2,100 Descending Kansas City Center
02:25PM 39.0142 -89.5161 254° West 323 372 13,800 -2,100 Descending Kansas City Center
02:26PM 38.9797 -89.6167 246° West 314 361 11,800 -1,860 Descending Kansas City Center
02:27PM 38.9169 -89.6942 224° Southwest 314 361 10,000 -960 Descending Kansas City Center
02:28PM 38.8642 -89.7733 229° Southwest 298 343 9,900 -780 Descending Kansas City Center
02:29PM 38.8247 -89.8550 238° Southwest 274 315 8,500 -1,440 Descending Kansas City Center
02:30PM 38.7858 -89.9333 238° Southwest 265 305 7,000 -1,260 Descending Kansas City Center
02:31PM 38.7486 -90.0081 237° Southwest 256 295 5,900 -1,320 Descending Kansas City Center
02:32PM 38.7114 -90.0819 237° Southwest 250 288 4,300 -1,200 Descending Kansas City Center
02:33PM 38.6758 -90.1564 239° Southwest 245 282 3,500 -840 Descending Kansas City Center
02:34PM 38.6831 -90.2275 277° West 191 220 2,600 -900 Descending Kansas City Center
02:35PM 38.7083 -90.2772 303° West 175 201 1,700 -840 Descending Kansas City Center
02:36PM 38.7311 -90.3242 302° West 165 190 900 -540 Descending Kansas City Center
02:37PM 38.7522 -90.3683 302° West 162 186 600 -300 Descending Kansas City Center
02:39PM 38.7487 -90.3700 169° South  Level Estimated